Time;durP1;ratioP1;P1;durP2;ratioP2;P2;SDS_P1;SDS_P2;PMS_P1;PMS_P2;Temp;Humidity;BMP_temperature;BMP_pressure;BME280_temperature;BME280_humidity;BME280_pressure;Samples;Min_cycle;Max_cycle;Signal;HPM_P1;HPM_P2
2022/12/25 00:48:39;;;;;;;2.10;0.50;;;11.30;99.90;;;;;;5042569;27;2974455;-92
2022/12/25 00:51:13;;;;;;;1.83;0.60;;;11.10;99.90;;;;;;5136825;28;20204;-92
2022/12/25 00:53:53;;;;;;;1.67;0.50;;;11.10;99.90;;;;;;5135983;28;20288;-92
2022/12/25 00:56:27;;;;;;;1.20;0.70;;;11.10;99.90;;;;;;5135591;28;20224;-91
2022/12/25 00:59:00;;;;;;;2.53;0.50;;;11.10;99.90;;;;;;5136547;28;20207;-92
2022/12/25 01:01:36;;;;;;;3.33;0.70;;;11.10;99.90;;;;;;5136210;28;20205;-92
2022/12/25 01:04:12;;;;;;;1.07;0.60;;;11.20;99.90;;;;;;5134784;28;20288;-91
2022/12/25 01:06:44;;;;;;;2.20;0.70;;;11.20;99.90;;;;;;5135906;28;20597;-90
2022/12/25 01:12:04;;;;;;;1.47;0.90;;;11.10;99.90;;;;;;5137923;28;20281;-90
2022/12/25 01:14:35;;;;;;;2.57;0.70;;;11.10;99.90;;;;;;5137658;28;20229;-89
2022/12/25 01:17:06;;;;;;;1.10;0.60;;;11.00;99.90;;;;;;5133349;28;20235;-90
2022/12/25 01:19:46;;;;;;;2.50;0.90;;;11.00;99.90;;;;;;5098837;28;20226;-90
2022/12/25 01:22:17;;;;;;;3.43;1.00;;;11.00;99.90;;;;;;5116018;28;20662;-90
2022/12/25 01:24:49;;;;;;;4.07;1.20;;;11.00;99.90;;;;;;5115505;28;20217;-89
2022/12/25 01:27:20;;;;;;;2.63;1.10;;;11.00;99.90;;;;;;5130188;28;20233;-89
2022/12/25 01:29:51;;;;;;;2.37;0.90;;;11.00;99.90;;;;;;5136855;28;20201;-89
2022/12/25 01:32:23;;;;;;;1.77;1.00;;;11.00;99.90;;;;;;5143888;28;20198;-90
2022/12/25 01:34:59;;;;;;;2.03;0.93;;;11.00;99.90;;;;;;5152111;28;20267;-89
2022/12/25 01:37:31;;;;;;;1.60;1.20;;;11.00;99.90;;;;;;5134556;28;20213;-89
2022/12/25 01:40:02;;;;;;;5.33;0.90;;;11.00;99.90;;;;;;5116235;28;20206;-91
2022/12/25 01:42:34;;;;;;;3.90;0.93;;;10.90;99.90;;;;;;5114912;28;20207;-91
2022/12/25 01:45:36;;;;;;;3.40;0.87;;;10.90;99.90;;;;;;5117608;28;20218;-90
2022/12/25 01:48:15;;;;;;;2.73;0.90;;;10.90;99.90;;;;;;5148717;28;20235;-89
2022/12/25 01:50:51;;;;;;;3.43;1.10;;;11.00;99.90;;;;;;5134585;28;20225;-91
2022/12/25 01:53:26;;;;;;;2.27;1.10;;;11.00;99.90;;;;;;5117359;28;20202;-92
2022/12/25 01:56:06;;;;;;;3.10;0.90;;;11.00;99.90;;;;;;5131870;28;20218;-92
2022/12/25 01:58:42;;;;;;;1.97;1.10;;;11.00;99.90;;;;;;5133030;28;20205;-90
2022/12/25 02:01:14;;;;;;;1.97;0.90;;;10.90;99.90;;;;;;5135013;28;20201;-90
2022/12/25 02:03:45;;;;;;;4.00;1.00;;;10.90;99.90;;;;;;5131731;28;20210;-91
2022/12/25 02:06:19;;;;;;;2.80;1.07;;;10.90;99.90;;;;;;5131866;28;20298;-91
2022/12/25 02:08:54;;;;;;;2.60;0.80;;;10.90;99.90;;;;;;5122545;28;20290;-91
2022/12/25 02:14:25;;;;;;;4.90;1.00;;;11.00;99.90;;;;;;5085895;28;20205;-92
2022/12/25 02:17:07;;;;;;;1.73;0.93;;;11.00;99.90;;;;;;5121862;28;20199;-92
2022/12/25 02:20:04;;;;;;;3.87;0.93;;;10.90;99.90;;;;;;5122156;28;20213;-92
2022/12/25 02:22:52;;;;;;;1.43;1.03;;;11.00;99.90;;;;;;5111820;28;20237;-91
2022/12/25 02:25:44;;;;;;;2.27;0.93;;;10.90;99.90;;;;;;5124139;28;20206;-91
2022/12/25 02:28:22;;;;;;;3.20;1.17;;;11.00;99.90;;;;;;5121480;28;20257;-89
2022/12/25 02:31:01;;;;;;;3.13;1.00;;;10.90;99.90;;;;;;5120725;28;20205;-89
2022/12/25 02:36:36;;;;;;;3.13;1.20;;;10.90;99.90;;;;;;5122283;28;20224;-89
2022/12/25 02:42:09;;;;;;;5.50;1.30;;;10.90;99.90;;;;;;5118607;28;20229;-92
2022/12/25 03:07:54;;;;;;;2.70;1.07;;;10.90;99.90;;;;;;5097068;28;20238;-91
2022/12/25 03:13:23;;;;;;;4.53;1.23;;;10.90;99.90;;;;;;5117851;28;20677;-94
2022/12/25 03:18:50;;;;;;;3.60;1.50;;;10.90;99.90;;;;;;5099750;28;20572;-91
2022/12/25 03:27:02;;;;;;;3.50;1.33;;;10.90;99.90;;;;;;5117711;28;20206;-91
2022/12/25 03:32:35;;;;;;;1.50;1.27;;;10.90;99.90;;;;;;5118440;28;20194;-90
2022/12/25 03:35:25;;;;;;;2.30;1.40;;;10.90;99.90;;;;;;5120996;28;20198;-91
2022/12/25 04:38:03;;;;;;;3.80;2.70;;;10.70;99.90;;;;;;5118940;28;20320;-91
2022/12/25 04:40:34;;;;;;;3.97;1.97;;;10.70;99.90;;;;;;5117404;28;20221;-91
2022/12/25 04:43:07;;;;;;;2.63;1.77;;;10.70;99.90;;;;;;5096697;28;20203;-91
2022/12/25 04:45:42;;;;;;;2.20;1.80;;;10.70;99.90;;;;;;5096179;28;20214;-91
2022/12/25 04:48:15;;;;;;;2.77;2.07;;;10.70;99.90;;;;;;5114705;28;20289;-91
2022/12/25 04:50:46;;;;;;;2.33;1.50;;;10.70;99.90;;;;;;5115125;28;20203;-91
2022/12/25 04:53:20;;;;;;;3.30;1.87;;;10.80;99.90;;;;;;5115393;28;20210;-91
2022/12/25 04:56:02;;;;;;;2.83;1.57;;;10.70;99.90;;;;;;5116512;28;20213;-91
2022/12/25 04:58:36;;;;;;;1.83;1.57;;;10.70;99.90;;;;;;5117694;28;20225;-91
2022/12/25 05:01:08;;;;;;;2.73;1.70;;;10.70;99.90;;;;;;5116828;28;20255;-91
2022/12/25 05:03:43;;;;;;;2.03;1.33;;;10.70;99.90;;;;;;5118827;28;20243;-92
2022/12/25 05:06:15;;;;;;;3.73;1.20;;;10.70;99.90;;;;;;5097646;28;20209;-91
2022/12/25 05:08:50;;;;;;;2.83;1.43;;;10.70;99.90;;;;;;5096502;28;20242;-93
2022/12/25 05:11:21;;;;;;;2.03;1.63;;;10.70;99.90;;;;;;5097040;28;20203;-92
2022/12/25 05:13:54;;;;;;;3.60;1.70;;;10.70;99.90;;;;;;5095924;28;20234;-92
2022/12/25 05:16:29;;;;;;;2.00;1.50;;;10.80;99.90;;;;;;5097226;28;20207;-92
2022/12/25 05:19:00;;;;;;;7.23;1.90;;;10.70;99.90;;;;;;5078928;28;20237;-92
2022/12/25 05:21:31;;;;;;;3.27;1.60;;;10.70;99.90;;;;;;5084406;28;20199;-95
2022/12/25 05:24:07;;;;;;;4.10;2.07;;;10.70;99.90;;;;;;5115477;28;20202;-92
2022/12/25 05:26:38;;;;;;;1.70;1.20;;;10.70;99.90;;;;;;5115932;28;20217;-92
2022/12/25 05:29:13;;;;;;;4.43;1.67;;;10.70;99.90;;;;;;5115854;28;20255;-92
2022/12/25 05:31:45;;;;;;;5.33;1.90;;;10.70;99.90;;;;;;5116279;28;20244;-92
2022/12/25 05:34:16;;;;;;;3.97;1.93;;;10.70;99.90;;;;;;5118214;28;20206;-92
2022/12/25 05:36:51;;;;;;;3.57;1.40;;;10.70;99.90;;;;;;5120246;28;20650;-92
2022/12/25 05:39:26;;;;;;;2.30;1.20;;;10.70;99.90;;;;;;5117616;28;20206;-93
2022/12/25 05:41:59;;;;;;;2.80;1.40;;;10.70;99.90;;;;;;5100462;28;20207;-90
2022/12/25 05:44:33;;;;;;;3.83;1.63;;;10.70;99.90;;;;;;5100063;28;20290;-91
2022/12/25 05:47:05;;;;;;;2.57;1.67;;;10.70;99.90;;;;;;5100366;28;20230;-91
2022/12/25 05:49:36;;;;;;;3.60;1.63;;;10.70;99.90;;;;;;5105474;28;20257;-91
2022/12/25 05:52:07;;;;;;;4.10;1.80;;;10.70;99.90;;;;;;5120492;28;20206;-92
2022/12/25 05:54:42;;;;;;;4.17;1.70;;;10.70;99.90;;;;;;5117639;22;20274;-91
2022/12/25 05:57:14;;;;;;;4.53;1.83;;;10.70;99.90;;;;;;5073951;28;20239;-93
2022/12/25 05:59:48;;;;;;;4.20;1.70;;;10.70;99.90;;;;;;5057836;28;20220;-92
2022/12/25 06:02:19;;;;;;;8.97;1.50;;;10.70;99.90;;;;;;5054471;28;20207;-92
2022/12/25 06:04:50;;;;;;;3.33;1.57;;;10.70;99.90;;;;;;5047501;28;20228;-92
2022/12/25 06:07:21;;;;;;;6.00;1.80;;;10.70;99.90;;;;;;5062500;28;20306;-93
2022/12/25 06:09:53;;;;;;;5.20;2.00;;;10.70;99.90;;;;;;5063312;28;20323;-91
2022/12/25 06:12:25;;;;;;;3.90;1.50;;;10.70;99.90;;;;;;5061775;28;20215;-94
2022/12/25 06:14:58;;;;;;;6.27;1.83;;;10.70;99.90;;;;;;5056760;28;20211;-94
2022/12/25 06:17:29;;;;;;;2.53;1.40;;;10.70;99.90;;;;;;5039978;28;20212;-94
2022/12/25 06:20:01;;;;;;;4.03;1.90;;;10.70;99.90;;;;;;5040234;28;20700;-94
2022/12/25 06:22:34;;;;;;;3.90;1.73;;;10.70;99.90;;;;;;5079909;28;20218;-93
2022/12/25 06:25:09;;;;;;;2.77;1.37;;;10.70;99.90;;;;;;5065770;28;20294;-94
2022/12/25 06:27:46;;;;;;;3.97;1.47;;;10.70;99.90;;;;;;5059047;28;20288;-93
2022/12/25 06:30:23;;;;;;;4.30;1.57;;;10.70;99.90;;;;;;5058918;28;20231;-93
2022/12/25 06:33:04;;;;;;;3.23;1.33;;;10.70;99.90;;;;;;5038144;28;20251;-93
2022/12/25 06:35:35;;;;;;;5.07;1.43;;;10.70;99.90;;;;;;5038767;28;20680;-93
2022/12/25 06:38:12;;;;;;;2.80;1.00;;;10.70;99.90;;;;;;5021501;28;20293;-93
2022/12/25 06:40:43;;;;;;;4.83;1.33;;;10.70;99.90;;;;;;5038695;28;20677;-93
2022/12/25 06:43:15;;;;;;;3.73;1.10;;;10.70;99.90;;;;;;5056671;28;20204;-93
2022/12/25 06:45:52;;;;;;;3.47;1.03;;;10.80;99.90;;;;;;5040994;28;20204;-93
2022/12/25 06:48:31;;;;;;;2.97;1.17;;;10.70;99.90;;;;;;5058512;28;20242;-91
2022/12/25 06:51:04;;;;;;;4.47;1.30;;;10.80;99.90;;;;;;5040499;28;20290;-93
2022/12/25 06:53:37;;;;;;;5.83;1.37;;;10.70;99.90;;;;;;5057524;28;20696;-93
2022/12/25 06:56:17;;;;;;;5.63;1.70;;;10.80;99.90;;;;;;5022383;28;20288;-92
2022/12/25 06:58:51;;;;;;;2.77;1.37;;;10.80;99.90;;;;;;5039098;28;20880;-92
2022/12/25 07:01:27;;;;;;;5.93;1.70;;;10.80;99.90;;;;;;5057593;28;20231;-92
2022/12/25 07:04:01;;;;;;;5.23;1.43;;;10.80;99.90;;;;;;5058574;28;20212;-93
2022/12/25 07:06:33;;;;;;;6.87;1.87;;;10.80;99.90;;;;;;5059538;28;20603;-92
2022/12/25 07:09:07;;;;;;;6.10;1.70;;;10.80;99.90;;;;;;5057715;28;20266;-93
2022/12/25 07:11:39;;;;;;;7.57;1.87;;;10.80;99.90;;;;;;5057872;28;20240;-92
2022/12/25 07:14:19;;;;;;;7.27;1.70;;;10.80;99.90;;;;;;5057257;28;20193;-92
2022/12/25 07:16:59;;;;;;;5.87;1.60;;;10.80;99.90;;;;;;5056452;28;20201;-93
2022/12/25 07:19:33;;;;;;;7.80;2.13;;;10.80;99.90;;;;;;5057645;28;20212;-93
2022/12/25 07:22:13;;;;;;;5.30;1.90;;;10.70;99.90;;;;;;5058127;28;20652;-94
2022/12/25 07:24:45;;;;;;;7.53;2.17;;;10.70;99.90;;;;;;5058794;28;20219;-93
2022/12/25 07:27:19;;;;;;;4.93;2.00;;;10.70;99.90;;;;;;5057597;28;20208;-93
2022/12/25 07:29:51;;;;;;;9.97;2.27;;;10.70;99.90;;;;;;5060413;28;20315;-94
2022/12/25 07:32:36;;;;;;;6.43;2.23;;;10.70;99.90;;;;;;5052444;28;20213;-93
2022/12/25 07:35:10;;;;;;;8.43;2.00;;;10.70;99.90;;;;;;5039780;28;20225;-94
2022/12/25 07:37:41;;;;;;;4.17;1.80;;;10.70;99.90;;;;;;5037896;28;20218;-93
2022/12/25 07:40:13;;;;;;;8.47;1.77;;;10.70;99.90;;;;;;5041023;28;20216;-93
2022/12/25 07:42:57;;;;;;;8.50;2.10;;;10.70;99.90;;;;;;5038851;28;20216;-93
2022/12/25 07:45:30;;;;;;;13.70;2.30;;;10.70;99.90;;;;;;5047398;28;20212;-93
2022/12/25 07:48:15;;;;;;;6.10;1.83;;;10.80;99.90;;;;;;5056666;28;20215;-93
2022/12/25 07:50:46;;;;;;;8.10;1.60;;;10.70;99.90;;;;;;5053081;28;20220;-93
2022/12/25 07:53:20;;;;;;;6.87;1.70;;;10.70;99.90;;;;;;5068576;28;20240;-95
2022/12/25 07:55:58;;;;;;;6.17;1.77;;;10.70;99.90;;;;;;5075013;28;20226;-91
2022/12/25 07:58:32;;;;;;;9.63;1.63;;;10.70;99.90;;;;;;5076121;28;20227;-92
2022/12/25 08:01:06;;;;;;;4.57;1.40;;;10.70;99.90;;;;;;5069986;28;20275;-94
2022/12/25 08:03:40;;;;;;;6.90;1.53;;;10.70;99.90;;;;;;5055756;28;20201;-92
2022/12/25 08:06:12;;;;;;;8.80;1.50;;;10.60;99.90;;;;;;5055143;28;20200;-93
2022/12/25 08:08:43;;;;;;;9.17;1.83;;;10.70;99.90;;;;;;5047493;28;20682;-92
2022/12/25 08:11:17;;;;;;;7.40;2.13;;;10.70;99.90;;;;;;5037656;28;20243;-92
2022/12/25 08:13:51;;;;;;;6.03;1.77;;;10.70;99.90;;;;;;5057855;28;20687;-92
2022/12/25 08:16:22;;;;;;;6.67;2.10;;;10.70;99.90;;;;;;5058095;28;20214;-92
2022/12/25 08:18:55;;;;;;;7.53;2.13;;;10.70;99.90;;;;;;5058948;28;20197;-92
2022/12/25 08:21:29;;;;;;;6.03;2.07;;;10.70;99.90;;;;;;5044689;28;20216;-93
2022/12/25 08:24:01;;;;;;;10.70;2.93;;;10.70;99.90;;;;;;5036496;28;20212;-93
2022/12/25 08:26:36;;;;;;;5.57;1.97;;;10.70;99.90;;;;;;5036931;28;20276;-93
2022/12/25 08:29:08;;;;;;;9.33;2.27;;;10.70;99.90;;;;;;5035605;28;20242;-92
2022/12/25 08:31:42;;;;;;;8.53;2.00;;;10.70;99.90;;;;;;5056764;28;20240;-92
2022/12/25 08:34:22;;;;;;;5.10;1.73;;;10.70;99.90;;;;;;5055841;28;20246;-92
2022/12/25 08:36:54;;;;;;;7.80;1.77;;;10.70;99.90;;;;;;5038624;28;20232;-93
2022/12/25 08:39:31;;;;;;;9.83;2.13;;;10.70;99.90;;;;;;5056144;28;20232;-92
2022/12/25 08:42:02;;;;;;;6.13;1.73;;;10.80;99.90;;;;;;5056097;28;20655;-92
2022/12/25 08:44:36;;;;;;;8.27;1.90;;;10.70;99.90;;;;;;5104010;22;20266;-92
